sensor_id;sensor_type;location;lat;lon;timestamp;temperature;humidity
78438;SHT31;67736;51.978;5.656;2023-04-15T00:01:57;12.0;48.9
78438;SHT31;67736;51.978;5.656;2023-04-15T00:04:28;12.0;48.8
78438;SHT31;67736;51.978;5.656;2023-04-15T00:06:59;12.0;48.8
78438;SHT31;67736;51.978;5.656;2023-04-15T00:09:29;12.0;48.8
78438;SHT31;67736;51.978;5.656;2023-04-15T00:11:59;12.1;49.0
78438;SHT31;67736;51.978;5.656;2023-04-15T00:14:29;12.1;48.8
78438;SHT31;67736;51.978;5.656;2023-04-15T00:16:58;12.1;48.8
78438;SHT31;67736;51.978;5.656;2023-04-15T00:19:28;12.0;48.8
78438;SHT31;67736;51.978;5.656;2023-04-15T00:21:59;12.0;48.9
78438;SHT31;67736;51.978;5.656;2023-04-15T00:24:29;12.0;49.0
78438;SHT31;67736;51.978;5.656;2023-04-15T00:26:59;12.0;48.9
78438;SHT31;67736;51.978;5.656;2023-04-15T00:29:29;12.0;49.0
78438;SHT31;67736;51.978;5.656;2023-04-15T00:31:58;12.0;49.2
78438;SHT31;67736;51.978;5.656;2023-04-15T00:34:31;12.0;49.2
78438;SHT31;67736;51.978;5.656;2023-04-15T00:37:00;12.0;49.3
78438;SHT31;67736;51.978;5.656;2023-04-15T00:39:30;12.0;49.3
78438;SHT31;67736;51.978;5.656;2023-04-15T00:42:01;12.0;49.5
78438;SHT31;67736;51.978;5.656;2023-04-15T00:44:30;11.9;49.5
78438;SHT31;67736;51.978;5.656;2023-04-15T00:47:03;11.9;49.6
78438;SHT31;67736;51.978;5.656;2023-04-15T00:49:36;11.9;49.7
78438;SHT31;67736;51.978;5.656;2023-04-15T00:52:08;11.9;49.9
78438;SHT31;67736;51.978;5.656;2023-04-15T00:54:37;11.9;49.9
78438;SHT31;67736;51.978;5.656;2023-04-15T00:57:07;11.9;50.1
78438;SHT31;67736;51.978;5.656;2023-04-15T00:59:36;11.9;50.2
78438;SHT31;67736;51.978;5.656;2023-04-15T01:02:06;11.9;50.2
78438;SHT31;67736;51.978;5.656;2023-04-15T01:04:36;11.9;50.3
78438;SHT31;67736;51.978;5.656;2023-04-15T01:07:08;11.9;50.6
78438;SHT31;67736;51.978;5.656;2023-04-15T01:09:38;11.8;50.6
78438;SHT31;67736;51.978;5.656;2023-04-15T01:12:09;11.8;50.5
78438;SHT31;67736;51.978;5.656;2023-04-15T01:14:40;11.8;50.5
78438;SHT31;67736;51.978;5.656;2023-04-15T01:17:10;11.8;50.6
78438;SHT31;67736;51.978;5.656;2023-04-15T01:19:39;11.8;50.6
78438;SHT31;67736;51.978;5.656;2023-04-15T01:22:09;11.8;50.8
78438;SHT31;67736;51.978;5.656;2023-04-15T01:24:40;11.7;50.7
78438;SHT31;67736;51.978;5.656;2023-04-15T01:27:11;11.7;50.4
78438;SHT31;67736;51.978;5.656;2023-04-15T01:29:41;11.7;50.5
78438;SHT31;67736;51.978;5.656;2023-04-15T01:32:10;11.7;50.6
78438;SHT31;67736;51.978;5.656;2023-04-15T01:34:40;11.6;50.6
78438;SHT31;67736;51.978;5.656;2023-04-15T01:37:10;11.6;50.7
78438;SHT31;67736;51.978;5.656;2023-04-15T01:39:40;11.6;50.9
78438;SHT31;67736;51.978;5.656;2023-04-15T01:42:09;11.5;50.9
78438;SHT31;67736;51.978;5.656;2023-04-15T01:44:39;11.5;51.2
78438;SHT31;67736;51.978;5.656;2023-04-15T01:47:10;11.4;51.4
78438;SHT31;67736;51.978;5.656;2023-04-15T01:49:40;11.4;51.4
78438;SHT31;67736;51.978;5.656;2023-04-15T01:52:10;11.4;51.5
78438;SHT31;67736;51.978;5.656;2023-04-15T01:54:39;11.3;51.7
78438;SHT31;67736;51.978;5.656;2023-04-15T01:57:09;11.3;51.9
78438;SHT31;67736;51.978;5.656;2023-04-15T01:59:39;11.3;52.0
78438;SHT31;67736;51.978;5.656;2023-04-15T02:02:11;11.2;52.1
78438;SHT31;67736;51.978;5.656;2023-04-15T02:04:40;11.2;52.3
78438;SHT31;67736;51.978;5.656;2023-04-15T02:07:11;11.2;52.4
78438;SHT31;67736;51.978;5.656;2023-04-15T02:09:40;11.1;52.7
78438;SHT31;67736;51.978;5.656;2023-04-15T02:12:10;11.1;52.6
78438;SHT31;67736;51.978;5.656;2023-04-15T02:14:39;11.1;52.7
78438;SHT31;67736;51.978;5.656;2023-04-15T02:17:11;11.1;52.8
78438;SHT31;67736;51.978;5.656;2023-04-15T02:19:40;11.1;52.9
78438;SHT31;67736;51.978;5.656;2023-04-15T02:22:12;11.0;52.9
78438;SHT31;67736;51.978;5.656;2023-04-15T02:24:45;11.0;53.1
78438;SHT31;67736;51.978;5.656;2023-04-15T02:27:17;11.0;53.2
78438;SHT31;67736;51.978;5.656;2023-04-15T02:29:47;11.0;53.5
78438;SHT31;67736;51.978;5.656;2023-04-15T02:32:17;10.9;53.6
78438;SHT31;67736;51.978;5.656;2023-04-15T02:34:49;10.9;53.6
78438;SHT31;67736;51.978;5.656;2023-04-15T02:37:19;10.9;53.6
78438;SHT31;67736;51.978;5.656;2023-04-15T02:39:51;10.9;53.9
78438;SHT31;67736;51.978;5.656;2023-04-15T02:42:21;10.8;54.0
78438;SHT31;67736;51.978;5.656;2023-04-15T02:44:54;10.8;54.3
78438;SHT31;67736;51.978;5.656;2023-04-15T02:47:24;10.8;54.3
78438;SHT31;67736;51.978;5.656;2023-04-15T02:49:54;10.8;54.3
78438;SHT31;67736;51.978;5.656;2023-04-15T02:52:27;10.8;54.4
78438;SHT31;67736;51.978;5.656;2023-04-15T02:54:59;10.8;54.4
78438;SHT31;67736;51.978;5.656;2023-04-15T02:57:29;10.7;54.3
78438;SHT31;67736;51.978;5.656;2023-04-15T02:59:58;10.7;54.6
78438;SHT31;67736;51.978;5.656;2023-04-15T03:02:32;10.7;54.4
78438;SHT31;67736;51.978;5.656;2023-04-15T03:05:02;10.6;54.5
78438;SHT31;67736;51.978;5.656;2023-04-15T03:07:32;10.6;54.9
78438;SHT31;67736;51.978;5.656;2023-04-15T03:10:01;10.6;55.1
78438;SHT31;67736;51.978;5.656;2023-04-15T03:12:32;10.5;55.2
78438;SHT31;67736;51.978;5.656;2023-04-15T03:15:01;10.5;55.3
78438;SHT31;67736;51.978;5.656;2023-04-15T03:17:31;10.5;55.7
78438;SHT31;67736;51.978;5.656;2023-04-15T03:20:01;10.4;55.7
78438;SHT31;67736;51.978;5.656;2023-04-15T03:22:31;10.4;55.8
78438;SHT31;67736;51.978;5.656;2023-04-15T03:25:03;10.4;56.1
78438;SHT31;67736;51.978;5.656;2023-04-15T03:27:34;10.3;56.4
78438;SHT31;67736;51.978;5.656;2023-04-15T03:30:03;10.3;56.5
78438;SHT31;67736;51.978;5.656;2023-04-15T03:32:34;10.3;56.6
78438;SHT31;67736;51.978;5.656;2023-04-15T03:35:03;10.2;56.7
78438;SHT31;67736;51.978;5.656;2023-04-15T03:37:35;10.2;57.0
78438;SHT31;67736;51.978;5.656;2023-04-15T03:40:05;10.2;57.2
78438;SHT31;67736;51.978;5.656;2023-04-15T03:42:36;10.2;57.4
78438;SHT31;67736;51.978;5.656;2023-04-15T03:45:08;10.1;57.5
78438;SHT31;67736;51.978;5.656;2023-04-15T03:47:38;10.1;57.6
78438;SHT31;67736;51.978;5.656;2023-04-15T03:50:08;10.1;57.7
78438;SHT31;67736;51.978;5.656;2023-04-15T03:52:38;10.1;57.9
78438;SHT31;67736;51.978;5.656;2023-04-15T03:55:08;10.0;58.0
78438;SHT31;67736;51.978;5.656;2023-04-15T03:57:38;10.0;58.2
78438;SHT31;67736;51.978;5.656;2023-04-15T04:00:08;10.0;58.3
78438;SHT31;67736;51.978;5.656;2023-04-15T04:02:38;9.9;58.5
78438;SHT31;67736;51.978;5.656;2023-04-15T04:05:08;9.9;58.5
78438;SHT31;67736;51.978;5.656;2023-04-15T04:07:38;9.9;58.7
78438;SHT31;67736;51.978;5.656;2023-04-15T04:10:08;9.9;58.8
78438;SHT31;67736;51.978;5.656;2023-04-15T04:12:38;9.9;59.0
78438;SHT31;67736;51.978;5.656;2023-04-15T04:15:08;9.8;59.1
78438;SHT31;67736;51.978;5.656;2023-04-15T04:17:39;9.8;59.2
78438;SHT31;67736;51.978;5.656;2023-04-15T04:20:09;9.8;59.4
78438;SHT31;67736;51.978;5.656;2023-04-15T04:22:39;9.8;59.4
78438;SHT31;67736;51.978;5.656;2023-04-15T04:25:09;9.8;59.5
78438;SHT31;67736;51.978;5.656;2023-04-15T04:27:39;9.7;59.6
78438;SHT31;67736;51.978;5.656;2023-04-15T04:30:09;9.7;59.7
78438;SHT31;67736;51.978;5.656;2023-04-15T04:32:39;9.7;59.8
78438;SHT31;67736;51.978;5.656;2023-04-15T04:35:08;9.7;59.9
78438;SHT31;67736;51.978;5.656;2023-04-15T04:37:38;9.7;60.1
78438;SHT31;67736;51.978;5.656;2023-04-15T04:40:08;9.7;60.2
78438;SHT31;67736;51.978;5.656;2023-04-15T04:42:38;9.6;60.4
78438;SHT31;67736;51.978;5.656;2023-04-15T04:45:08;9.6;60.5
78438;SHT31;67736;51.978;5.656;2023-04-15T04:47:38;9.6;60.5
78438;SHT31;67736;51.978;5.656;2023-04-15T04:50:08;9.6;60.8
78438;SHT31;67736;51.978;5.656;2023-04-15T04:52:38;9.6;60.9
78438;SHT31;67736;51.978;5.656;2023-04-15T04:55:10;9.6;60.9
78438;SHT31;67736;51.978;5.656;2023-04-15T04:57:40;9.6;61.0
78438;SHT31;67736;51.978;5.656;2023-04-15T05:00:10;9.6;61.0
78438;SHT31;67736;51.978;5.656;2023-04-15T05:02:40;9.6;61.0
78438;SHT31;67736;51.978;5.656;2023-04-15T05:05:10;9.6;61.1
78438;SHT31;67736;51.978;5.656;2023-04-15T05:07:42;9.6;61.1
78438;SHT31;67736;51.978;5.656;2023-04-15T05:10:12;9.6;61.1
78438;SHT31;67736;51.978;5.656;2023-04-15T05:12:43;9.6;61.2
78438;SHT31;67736;51.978;5.656;2023-04-15T05:15:13;9.6;61.2
78438;SHT31;67736;51.978;5.656;2023-04-15T05:17:43;9.6;61.2
78438;SHT31;67736;51.978;5.656;2023-04-15T05:20:13;9.6;61.4
78438;SHT31;67736;51.978;5.656;2023-04-15T05:22:43;9.6;61.4
78438;SHT31;67736;51.978;5.656;2023-04-15T05:25:12;9.6;61.6
78438;SHT31;67736;51.978;5.656;2023-04-15T05:27:42;9.5;61.9
78438;SHT31;67736;51.978;5.656;2023-04-15T05:30:12;9.5;62.1
78438;SHT31;67736;51.978;5.656;2023-04-15T05:32:44;9.5;62.2
78438;SHT31;67736;51.978;5.656;2023-04-15T05:35:14;9.5;62.4
78438;SHT31;67736;51.978;5.656;2023-04-15T05:37:44;9.5;62.5
78438;SHT31;67736;51.978;5.656;2023-04-15T05:40:14;9.5;62.7
78438;SHT31;67736;51.978;5.656;2023-04-15T05:42:43;9.5;63.0
78438;SHT31;67736;51.978;5.656;2023-04-15T05:45:13;9.5;63.0
78438;SHT31;67736;51.978;5.656;2023-04-15T05:47:43;9.4;63.3
78438;SHT31;67736;51.978;5.656;2023-04-15T05:50:15;9.4;63.6
78438;SHT31;67736;51.978;5.656;2023-04-15T05:52:44;9.4;63.9
78438;SHT31;67736;51.978;5.656;2023-04-15T05:55:14;9.4;64.0
78438;SHT31;67736;51.978;5.656;2023-04-15T05:57:44;9.4;64.3
78438;SHT31;67736;51.978;5.656;2023-04-15T06:00:14;9.4;64.4
78438;SHT31;67736;51.978;5.656;2023-04-15T06:02:44;9.5;64.6
78438;SHT31;67736;51.978;5.656;2023-04-15T06:05:14;9.5;64.8
78438;SHT31;67736;51.978;5.656;2023-04-15T06:07:45;9.5;64.7
78438;SHT31;67736;51.978;5.656;2023-04-15T06:10:16;9.5;64.9
78438;SHT31;67736;51.978;5.656;2023-04-15T06:12:45;9.6;64.8
78438;SHT31;67736;51.978;5.656;2023-04-15T06:15:15;9.6;64.9
78438;SHT31;67736;51.978;5.656;2023-04-15T06:17:45;9.6;64.9
78438;SHT31;67736;51.978;5.656;2023-04-15T06:20:14;9.7;64.9
78438;SHT31;67736;51.978;5.656;2023-04-15T06:22:46;9.7;64.8
78438;SHT31;67736;51.978;5.656;2023-04-15T06:25:16;9.8;64.9
78438;SHT31;67736;51.978;5.656;2023-04-15T06:27:45;9.8;65.0
78438;SHT31;67736;51.978;5.656;2023-04-15T06:30:15;9.9;64.9
78438;SHT31;67736;51.978;5.656;2023-04-15T06:32:45;9.9;64.8
78438;SHT31;67736;51.978;5.656;2023-04-15T06:35:14;10.0;64.7
78438;SHT31;67736;51.978;5.656;2023-04-15T06:37:44;10.1;64.6
78438;SHT31;67736;51.978;5.656;2023-04-15T06:40:14;10.2;64.7
78438;SHT31;67736;51.978;5.656;2023-04-15T06:42:44;10.3;64.1
78438;SHT31;67736;51.978;5.656;2023-04-15T06:45:15;10.3;64.0
78438;SHT31;67736;51.978;5.656;2023-04-15T06:47:46;10.4;64.2
78438;SHT31;67736;51.978;5.656;2023-04-15T06:50:22;10.5;63.7
78438;SHT31;67736;51.978;5.656;2023-04-15T06:52:55;10.6;63.5
78438;SHT31;67736;51.978;5.656;2023-04-15T06:55:25;10.6;63.3
78438;SHT31;67736;51.978;5.656;2023-04-15T06:57:55;10.7;63.1
78438;SHT31;67736;51.978;5.656;2023-04-15T07:00:26;10.7;63.3
78438;SHT31;67736;51.978;5.656;2023-04-15T07:02:58;10.8;63.0
78438;SHT31;67736;51.978;5.656;2023-04-15T07:05:31;10.9;62.6
78438;SHT31;67736;51.978;5.656;2023-04-15T07:08:02;10.9;62.5
78438;SHT31;67736;51.978;5.656;2023-04-15T07:10:33;11.0;62.2
78438;SHT31;67736;51.978;5.656;2023-04-15T07:13:04;11.0;62.0
78438;SHT31;67736;51.978;5.656;2023-04-15T07:15:35;11.1;61.4
78438;SHT31;67736;51.978;5.656;2023-04-15T07:18:04;11.2;60.8
78438;SHT31;67736;51.978;5.656;2023-04-15T07:20:34;11.2;60.4
78438;SHT31;67736;51.978;5.656;2023-04-15T07:23:04;11.3;60.1
78438;SHT31;67736;51.978;5.656;2023-04-15T07:25:34;11.4;59.1
78438;SHT31;67736;51.978;5.656;2023-04-15T07:28:04;11.4;58.9
78438;SHT31;67736;51.978;5.656;2023-04-15T07:30:33;11.5;58.7
78438;SHT31;67736;51.978;5.656;2023-04-15T07:33:03;11.6;58.5
78438;SHT31;67736;51.978;5.656;2023-04-15T07:35:35;11.7;56.9
78438;SHT31;67736;51.978;5.656;2023-04-15T07:38:04;11.8;56.2
78438;SHT31;67736;51.978;5.656;2023-04-15T07:40:34;11.9;56.1
78438;SHT31;67736;51.978;5.656;2023-04-15T07:43:04;12.0;55.3
78438;SHT31;67736;51.978;5.656;2023-04-15T07:45:34;12.1;55.6
78438;SHT31;67736;51.978;5.656;2023-04-15T07:48:04;12.2;55.1
78438;SHT31;67736;51.978;5.656;2023-04-15T07:50:34;12.4;54.7
78438;SHT31;67736;51.978;5.656;2023-04-15T07:53:04;12.5;53.9
78438;SHT31;67736;51.978;5.656;2023-04-15T07:55:34;12.6;54.0
78438;SHT31;67736;51.978;5.656;2023-04-15T07:58:04;12.8;52.9
78438;SHT31;67736;51.978;5.656;2023-04-15T08:00:34;12.9;52.5
78438;SHT31;67736;51.978;5.656;2023-04-15T08:03:04;13.0;51.6
78438;SHT31;67736;51.978;5.656;2023-04-15T08:05:34;13.1;51.9
78438;SHT31;67736;51.978;5.656;2023-04-15T08:08:03;13.2;51.0
78438;SHT31;67736;51.978;5.656;2023-04-15T08:10:33;13.4;50.8
78438;SHT31;67736;51.978;5.656;2023-04-15T08:13:03;13.5;51.2
78438;SHT31;67736;51.978;5.656;2023-04-15T08:15:33;13.6;50.3
78438;SHT31;67736;51.978;5.656;2023-04-15T08:18:03;13.7;49.8
78438;SHT31;67736;51.978;5.656;2023-04-15T08:20:32;13.8;49.9
78438;SHT31;67736;51.978;5.656;2023-04-15T08:23:02;13.8;49.4
78438;SHT31;67736;51.978;5.656;2023-04-15T08:25:32;13.9;49.2
78438;SHT31;67736;51.978;5.656;2023-04-15T08:28:04;13.9;49.2
78438;SHT31;67736;51.978;5.656;2023-04-15T08:30:35;13.9;49.3
78438;SHT31;67736;51.978;5.656;2023-04-15T08:33:05;14.0;48.9
78438;SHT31;67736;51.978;5.656;2023-04-15T08:35:34;14.0;48.7
78438;SHT31;67736;51.978;5.656;2023-04-15T08:38:04;14.1;49.0
78438;SHT31;67736;51.978;5.656;2023-04-15T08:40:41;14.2;49.0
78438;SHT31;67736;51.978;5.656;2023-04-15T08:43:17;14.2;48.6
78438;SHT31;67736;51.978;5.656;2023-04-15T08:45:49;14.3;48.2
78438;SHT31;67736;51.978;5.656;2023-04-15T08:48:20;14.4;48.7
78438;SHT31;67736;51.978;5.656;2023-04-15T08:50:51;14.5;48.0
78438;SHT31;67736;51.978;5.656;2023-04-15T08:53:20;14.6;48.0
78438;SHT31;67736;51.978;5.656;2023-04-15T08:55:51;14.7;47.3
78438;SHT31;67736;51.978;5.656;2023-04-15T08:58:21;14.8;46.9
78438;SHT31;67736;51.978;5.656;2023-04-15T09:00:52;14.9;47.0
78438;SHT31;67736;51.978;5.656;2023-04-15T09:03:22;15.1;46.8
78438;SHT31;67736;51.978;5.656;2023-04-15T09:05:52;15.2;46.6
78438;SHT31;67736;51.978;5.656;2023-04-15T09:08:23;15.3;47.0
78438;SHT31;67736;51.978;5.656;2023-04-15T09:10:53;15.4;45.8
78438;SHT31;67736;51.978;5.656;2023-04-15T09:13:23;15.5;45.5
78438;SHT31;67736;51.978;5.656;2023-04-15T09:15:53;15.6;45.3
78438;SHT31;67736;51.978;5.656;2023-04-15T09:18:31;15.7;45.2
78438;SHT31;67736;51.978;5.656;2023-04-15T09:21:06;15.7;44.5
78438;SHT31;67736;51.978;5.656;2023-04-15T09:23:39;15.8;44.2
78438;SHT31;67736;51.978;5.656;2023-04-15T09:26:09;15.8;44.3
78438;SHT31;67736;51.978;5.656;2023-04-15T09:28:42;15.8;44.5
78438;SHT31;67736;51.978;5.656;2023-04-15T09:31:12;15.8;44.9
78438;SHT31;67736;51.978;5.656;2023-04-15T09:33:55;15.8;44.8
78438;SHT31;67736;51.978;5.656;2023-04-15T09:36:25;15.8;44.6
78438;SHT31;67736;51.978;5.656;2023-04-15T09:38:57;15.8;44.6
78438;SHT31;67736;51.978;5.656;2023-04-15T09:41:29;15.8;44.1
78438;SHT31;67736;51.978;5.656;2023-04-15T09:44:00;15.8;43.2
78438;SHT31;67736;51.978;5.656;2023-04-15T09:46:42;15.9;42.6
78438;SHT31;67736;51.978;5.656;2023-04-15T09:49:12;15.9;42.5
78438;SHT31;67736;51.978;5.656;2023-04-15T09:51:42;15.9;42.9
78438;SHT31;67736;51.978;5.656;2023-04-15T09:54:12;15.9;42.6
78438;SHT31;67736;51.978;5.656;2023-04-15T09:56:47;16.0;42.8
78438;SHT31;67736;51.978;5.656;2023-04-15T09:59:16;16.0;43.6
78438;SHT31;67736;51.978;5.656;2023-04-15T10:01:48;16.0;43.6
78438;SHT31;67736;51.978;5.656;2023-04-15T10:04:18;16.1;43.5
78438;SHT31;67736;51.978;5.656;2023-04-15T10:06:52;16.1;43.2
78438;SHT31;67736;51.978;5.656;2023-04-15T10:09:21;16.2;42.6
78438;SHT31;67736;51.978;5.656;2023-04-15T10:11:51;16.2;42.7
78438;SHT31;67736;51.978;5.656;2023-04-15T10:14:21;16.2;42.8
78438;SHT31;67736;51.978;5.656;2023-04-15T10:16:55;16.2;42.9
78438;SHT31;67736;51.978;5.656;2023-04-15T10:19:27;16.2;43.3
78438;SHT31;67736;51.978;5.656;2023-04-15T10:21:59;16.3;42.6
78438;SHT31;67736;51.978;5.656;2023-04-15T10:24:30;16.3;43.5
78438;SHT31;67736;51.978;5.656;2023-04-15T10:27:02;16.3;42.9
78438;SHT31;67736;51.978;5.656;2023-04-15T10:29:32;16.3;43.1
78438;SHT31;67736;51.978;5.656;2023-04-15T10:32:02;16.3;42.6
78438;SHT31;67736;51.978;5.656;2023-04-15T10:34:33;16.3;43.0
78438;SHT31;67736;51.978;5.656;2023-04-15T10:37:03;16.3;43.0
78438;SHT31;67736;51.978;5.656;2023-04-15T10:39:41;16.3;44.1
78438;SHT31;67736;51.978;5.656;2023-04-15T10:42:13;16.3;44.0
78438;SHT31;67736;51.978;5.656;2023-04-15T10:44:46;16.3;44.0
78438;SHT31;67736;51.978;5.656;2023-04-15T10:47:19;16.3;43.9
78438;SHT31;67736;51.978;5.656;2023-04-15T10:49:51;16.2;43.8
78438;SHT31;67736;51.978;5.656;2023-04-15T10:52:25;16.2;44.4
78438;SHT31;67736;51.978;5.656;2023-04-15T10:55:11;16.1;44.0
78438;SHT31;67736;51.978;5.656;2023-04-15T10:57:40;16.1;45.1
78438;SHT31;67736;51.978;5.656;2023-04-15T11:00:14;16.1;45.6
78438;SHT31;67736;51.978;5.656;2023-04-15T11:02:53;16.1;44.3
78438;SHT31;67736;51.978;5.656;2023-04-15T11:05:49;16.1;43.7
78438;SHT31;67736;51.978;5.656;2023-04-15T11:08:54;16.1;43.7
78438;SHT31;67736;51.978;5.656;2023-04-15T11:12:05;16.1;44.7
78438;SHT31;67736;51.978;5.656;2023-04-15T11:14:39;16.1;44.4
78438;SHT31;67736;51.978;5.656;2023-04-15T11:17:10;16.1;44.7
78438;SHT31;67736;51.978;5.656;2023-04-15T11:19:39;16.1;44.9
78438;SHT31;67736;51.978;5.656;2023-04-15T11:22:10;16.2;44.2
78438;SHT31;67736;51.978;5.656;2023-04-15T11:24:47;16.1;43.7
78438;SHT31;67736;51.978;5.656;2023-04-15T11:27:22;16.1;44.1
78438;SHT31;67736;51.978;5.656;2023-04-15T11:29:52;16.1;44.2
78438;SHT31;67736;51.978;5.656;2023-04-15T11:32:22;16.1;44.2
78438;SHT31;67736;51.978;5.656;2023-04-15T11:34:52;16.0;44.4
78438;SHT31;67736;51.978;5.656;2023-04-15T11:37:28;16.0;44.5
78438;SHT31;67736;51.978;5.656;2023-04-15T11:39:58;16.1;44.3
78438;SHT31;67736;51.978;5.656;2023-04-15T11:42:30;16.1;44.2
78438;SHT31;67736;51.978;5.656;2023-04-15T11:45:07;16.1;43.9
78438;SHT31;67736;51.978;5.656;2023-04-15T11:47:38;16.1;44.0
78438;SHT31;67736;51.978;5.656;2023-04-15T11:50:15;16.1;44.1
78438;SHT31;67736;51.978;5.656;2023-04-15T11:52:54;16.1;44.0
78438;SHT31;67736;51.978;5.656;2023-04-15T11:55:24;16.1;43.9
78438;SHT31;67736;51.978;5.656;2023-04-15T11:58:07;16.1;44.3
78438;SHT31;67736;51.978;5.656;2023-04-15T12:00:39;16.1;43.8
78438;SHT31;67736;51.978;5.656;2023-04-15T12:03:17;16.1;43.5
78438;SHT31;67736;51.978;5.656;2023-04-15T12:06:07;16.0;42.7
78438;SHT31;67736;51.978;5.656;2023-04-15T12:08:50;16.0;43.1
78438;SHT31;67736;51.978;5.656;2023-04-15T12:11:31;16.0;43.5
78438;SHT31;67736;51.978;5.656;2023-04-15T12:14:05;16.0;44.2
78438;SHT31;67736;51.978;5.656;2023-04-15T12:16:38;16.1;44.2
78438;SHT31;67736;51.978;5.656;2023-04-15T12:19:10;16.1;44.4
78438;SHT31;67736;51.978;5.656;2023-04-15T12:21:43;16.1;43.6
78438;SHT31;67736;51.978;5.656;2023-04-15T12:24:13;16.1;43.3
78438;SHT31;67736;51.978;5.656;2023-04-15T12:26:48;16.0;43.9
78438;SHT31;67736;51.978;5.656;2023-04-15T12:29:19;16.0;44.9
78438;SHT31;67736;51.978;5.656;2023-04-15T12:31:53;16.0;45.3
78438;SHT31;67736;51.978;5.656;2023-04-15T12:34:31;16.0;45.5
78438;SHT31;67736;51.978;5.656;2023-04-15T12:37:04;16.0;44.6
78438;SHT31;67736;51.978;5.656;2023-04-15T12:39:37;15.9;44.8
78438;SHT31;67736;51.978;5.656;2023-04-15T12:42:08;15.9;45.1
78438;SHT31;67736;51.978;5.656;2023-04-15T12:44:38;15.9;44.6
78438;SHT31;67736;51.978;5.656;2023-04-15T12:47:09;15.9;45.0
78438;SHT31;67736;51.978;5.656;2023-04-15T12:49:40;15.9;45.1
78438;SHT31;67736;51.978;5.656;2023-04-15T12:52:10;15.9;45.7
78438;SHT31;67736;51.978;5.656;2023-04-15T12:54:39;15.9;44.9
78438;SHT31;67736;51.978;5.656;2023-04-15T12:57:09;15.9;45.2
78438;SHT31;67736;51.978;5.656;2023-04-15T12:59:39;15.9;44.3
78438;SHT31;67736;51.978;5.656;2023-04-15T13:02:08;15.8;44.4
78438;SHT31;67736;51.978;5.656;2023-04-15T13:04:38;15.8;44.0
78438;SHT31;67736;51.978;5.656;2023-04-15T13:07:07;15.8;44.7
78438;SHT31;67736;51.978;5.656;2023-04-15T13:09:39;15.8;44.1
78438;SHT31;67736;51.978;5.656;2023-04-15T13:12:09;15.8;44.8
78438;SHT31;67736;51.978;5.656;2023-04-15T13:14:40;15.8;45.7
78438;SHT31;67736;51.978;5.656;2023-04-15T13:17:09;15.7;45.6
78438;SHT31;67736;51.978;5.656;2023-04-15T13:19:39;15.7;45.3
78438;SHT31;67736;51.978;5.656;2023-04-15T13:22:11;15.7;45.7
78438;SHT31;67736;51.978;5.656;2023-04-15T13:24:46;15.7;46.6
78438;SHT31;67736;51.978;5.656;2023-04-15T13:27:16;15.7;46.9
78438;SHT31;67736;51.978;5.656;2023-04-15T13:29:46;15.7;46.4
78438;SHT31;67736;51.978;5.656;2023-04-15T13:32:15;15.7;46.6
78438;SHT31;67736;51.978;5.656;2023-04-15T13:34:45;15.7;45.4
78438;SHT31;67736;51.978;5.656;2023-04-15T13:37:14;15.7;46.0
78438;SHT31;67736;51.978;5.656;2023-04-15T13:39:44;15.7;46.7
78438;SHT31;67736;51.978;5.656;2023-04-15T13:42:13;15.7;46.7
78438;SHT31;67736;51.978;5.656;2023-04-15T13:44:43;15.7;46.7
78438;SHT31;67736;51.978;5.656;2023-04-15T13:47:12;15.6;45.8
78438;SHT31;67736;51.978;5.656;2023-04-15T13:49:42;15.6;46.3
78438;SHT31;67736;51.978;5.656;2023-04-15T13:52:12;15.5;47.2
78438;SHT31;67736;51.978;5.656;2023-04-15T13:54:42;15.5;46.6
78438;SHT31;67736;51.978;5.656;2023-04-15T13:57:13;15.4;45.7
78438;SHT31;67736;51.978;5.656;2023-04-15T13:59:43;15.4;46.5
78438;SHT31;67736;51.978;5.656;2023-04-15T14:02:13;15.4;45.7
78438;SHT31;67736;51.978;5.656;2023-04-15T14:04:44;15.4;46.1
78438;SHT31;67736;51.978;5.656;2023-04-15T14:07:14;15.3;47.0
78438;SHT31;67736;51.978;5.656;2023-04-15T14:09:44;15.3;47.4
78438;SHT31;67736;51.978;5.656;2023-04-15T14:12:16;15.3;47.4
78438;SHT31;67736;51.978;5.656;2023-04-15T14:14:46;15.3;48.3
78438;SHT31;67736;51.978;5.656;2023-04-15T14:17:16;15.3;49.3
78438;SHT31;67736;51.978;5.656;2023-04-15T14:19:45;15.3;49.6
78438;SHT31;67736;51.978;5.656;2023-04-15T14:22:15;15.3;48.8
78438;SHT31;67736;51.978;5.656;2023-04-15T14:24:45;15.3;48.6
78438;SHT31;67736;51.978;5.656;2023-04-15T14:27:15;15.2;48.9
78438;SHT31;67736;51.978;5.656;2023-04-15T14:29:45;15.2;48.9
78438;SHT31;67736;51.978;5.656;2023-04-15T14:32:14;15.2;48.3
78438;SHT31;67736;51.978;5.656;2023-04-15T14:34:44;15.1;48.4
78438;SHT31;67736;51.978;5.656;2023-04-15T14:37:14;15.0;48.8
78438;SHT31;67736;51.978;5.656;2023-04-15T14:39:43;15.0;49.2
78438;SHT31;67736;51.978;5.656;2023-04-15T14:42:12;14.9;50.2
78438;SHT31;67736;51.978;5.656;2023-04-15T14:44:42;14.8;50.0
78438;SHT31;67736;51.978;5.656;2023-04-15T14:47:14;14.8;50.7
78438;SHT31;67736;51.978;5.656;2023-04-15T14:49:43;14.7;50.2
78438;SHT31;67736;51.978;5.656;2023-04-15T14:52:15;14.6;50.0
78438;SHT31;67736;51.978;5.656;2023-04-15T14:54:44;14.6;50.2
78438;SHT31;67736;51.978;5.656;2023-04-15T14:57:14;14.5;50.1
78438;SHT31;67736;51.978;5.656;2023-04-15T14:59:43;14.4;50.8
78438;SHT31;67736;51.978;5.656;2023-04-15T15:02:13;14.3;50.7
78438;SHT31;67736;51.978;5.656;2023-04-15T15:04:43;14.3;51.3
78438;SHT31;67736;51.978;5.656;2023-04-15T15:07:12;14.2;51.5
78438;SHT31;67736;51.978;5.656;2023-04-15T15:09:42;14.2;51.8
78438;SHT31;67736;51.978;5.656;2023-04-15T15:12:13;14.1;52.1
78438;SHT31;67736;51.978;5.656;2023-04-15T15:14:43;14.1;52.1
78438;SHT31;67736;51.978;5.656;2023-04-15T15:17:14;14.0;52.4
78438;SHT31;67736;51.978;5.656;2023-04-15T15:19:45;13.9;52.8
78438;SHT31;67736;51.978;5.656;2023-04-15T15:22:15;13.9;53.0
78438;SHT31;67736;51.978;5.656;2023-04-15T15:24:44;13.8;53.4
78438;SHT31;67736;51.978;5.656;2023-04-15T15:27:14;13.8;53.5
78438;SHT31;67736;51.978;5.656;2023-04-15T15:29:44;13.7;53.8
78438;SHT31;67736;51.978;5.656;2023-04-15T15:32:13;13.7;53.6
78438;SHT31;67736;51.978;5.656;2023-04-15T15:34:43;13.7;53.6
78438;SHT31;67736;51.978;5.656;2023-04-15T15:37:12;13.6;53.1
78438;SHT31;67736;51.978;5.656;2023-04-15T15:39:42;13.6;53.4
78438;SHT31;67736;51.978;5.656;2023-04-15T15:42:11;13.6;53.4
78438;SHT31;67736;51.978;5.656;2023-04-15T15:44:41;13.6;53.7
78438;SHT31;67736;51.978;5.656;2023-04-15T15:47:11;13.5;53.9
78438;SHT31;67736;51.978;5.656;2023-04-15T15:49:43;13.5;53.7
78438;SHT31;67736;51.978;5.656;2023-04-15T15:52:13;13.5;53.6
78438;SHT31;67736;51.978;5.656;2023-04-15T15:54:42;13.4;53.9
78438;SHT31;67736;51.978;5.656;2023-04-15T15:57:12;13.3;54.3
78438;SHT31;67736;51.978;5.656;2023-04-15T15:59:42;13.3;54.3
78438;SHT31;67736;51.978;5.656;2023-04-15T16:02:12;13.3;54.4
78438;SHT31;67736;51.978;5.656;2023-04-15T16:04:42;13.2;54.7
78438;SHT31;67736;51.978;5.656;2023-04-15T16:07:13;13.2;54.8
78438;SHT31;67736;51.978;5.656;2023-04-15T16:09:43;13.2;54.9
78438;SHT31;67736;51.978;5.656;2023-04-15T16:12:13;13.2;54.8
78438;SHT31;67736;51.978;5.656;2023-04-15T16:14:42;13.2;54.9
78438;SHT31;67736;51.978;5.656;2023-04-15T16:17:13;13.2;55.2
78438;SHT31;67736;51.978;5.656;2023-04-15T16:19:43;13.1;55.1
78438;SHT31;67736;51.978;5.656;2023-04-15T16:22:13;13.1;55.1
78438;SHT31;67736;51.978;5.656;2023-04-15T16:24:42;13.0;55.2
78438;SHT31;67736;51.978;5.656;2023-04-15T16:27:12;13.0;55.2
78438;SHT31;67736;51.978;5.656;2023-04-15T16:29:45;12.9;55.4